EW9593 Weather Reports


time (UTC)temp
C
wind
direction
speed
KPH
gust
KPH
rain 1hr
cm
rain 24hr
cm
rain mn
cm
humidity
%
barometer
mb
20190421165511 22 208 12.9 22.5 0.00 0.00 0.00 65 1017.5
20190421165012 22 191 8.0 16.1 0.00 0.00 0.00 67 1017.6
20190421164511 22 202 4.8 11.3 0.00 0.00 0.00 67 1017.7
20190421164012 22 239 4.8 12.9 0.00 0.00 0.00 67 1017.6
20190421163511 22 214 9.7 22.5 0.00 0.00 0.00 69 1017.7
20190421163013 21 196 4.8 9.7 0.00 0.00 0.00 70 1017.8
20190421162511 21 226 3.2 12.9 0.00 0.00 0.00 71 1017.7
20190421162013 21 250 4.8 11.3 0.00 0.00 0.00 71 1017.8
20190421161511 21 219 4.8 8.0 0.00 0.00 0.00 72 1017.7
20190421161013 21 200 4.8 12.9 0.00 0.00 0.00 74 1017.6
20190421160512 20 241 3.2 9.7 0.00 0.00 0.00 75 1017.5
20190421160013 20 217 4.8 14.5 0.00 0.00 0.00 76 1017.6
20190421155510 20 210 8.0 17.7 0.00 0.00 0.00 76 1017.5
20190421155013 20 205 4.8 12.9 0.00 0.00 0.00 77 1017.5
20190421154511 20 212 6.4 12.9 0.00 0.00 0.00 77 1017.4
20190421154012 19 247 6.4 14.5 0.00 0.00 0.00 78 1017.5
20190421153511 19 211 4.8 12.9 0.00 0.00 0.00 78 1017.5
20190421153012 19 234 4.8 12.9 0.00 0.00 0.00 80 1017.5
20190421152511 19 238 4.8 11.3 0.00 0.00 0.00 79 1017.5
20190421152013 19 232 3.2 8.0 0.00 0.00 0.00 79 1017.4
20190421151511 19 218 6.4 12.9 0.00 0.00 0.00 79 1017.3
20190421151012 19 221 6.4 16.1 0.00 0.00 0.00 80 1017.4
20190421150512 19 225 6.4 12.9 0.00 0.00 0.00 81 1017.2
20190421150014 19 204 8.0 20.9 0.00 0.00 0.00 81 1017.2
20190421145511 19 224 6.4 17.7 0.00 0.00 0.00 82 1017.2
20190421145012 18 238 3.2 9.7 0.00 0.00 0.00 83 1017.2
20190421144511 18 214 4.8 14.5 0.00 0.00 0.00 85 1017.3
20190421144012 18 213 4.8 14.5 0.00 0.00 0.00 85 1017.2
20190421143511 18 223 3.2 9.7 0.00 0.00 0.00 85 1017.3
20190421143012 18 222 4.8 12.9 0.00 0.00 0.00 86 1017.2
20190421142511 18 247 3.2 9.7 0.00 0.00 0.00 87 1017.2
20190421142013 18 218 4.8 9.7 0.00 0.00 0.00 88 1017.1
20190421141511 18 232 4.8 9.7 0.00 0.00 0.00 89 1017.1
20190421141013 18 237 3.2 9.7 0.00 0.00 0.00 90 1017.1
20190421140511 17 221 4.8 11.3 0.00 0.00 0.00 94 1017.1
20190421140013 17 224 3.2 11.3 0.00 0.00 0.00 95 1017.1
20190421135511 17 237 3.2 12.9 0.00 0.00 0.00 95 1017.3
20190421135012 17 226 3.2 6.4 0.00 0.00 0.00 96 1017.3
20190421134511 17 235 4.8 9.7 0.00 0.00 0.00 95 1017.3
20190421134012 16 208 4.8 11.3 0.00 0.00 0.00 96 1017.3
20190421133511 16 235 3.2 8.0 0.00 0.00 0.00 97 1017.3
20190421133020 16 213 3.2 6.4 0.00 0.00 0.00 96 1017.2
20190421132511 16 222 4.8 11.3 0.00 0.00 0.00 96 1017.2
20190421132012 16 224 3.2 9.7 0.00 0.00 0.00 97 1017.1
20190421131511 16 209 4.8 14.5 0.00 0.00 0.00 96 1017.1
20190421131012 16 225 3.2 6.4 0.00 0.00 0.00 97 1017.1
20190421130511 16 209 3.2 8.0 0.00 0.00 0.00 97 1017.1
20190421130014 16 224 1.6 4.8 0.00 0.00 0.00 97 1017.0
20190421125511 16 229 1.6 6.4 0.00 0.00 0.00 97 1017.0
20190421125013 16 228 3.2 6.4 0.00 0.00 0.00 98 1016.9
20190421124511 15 230 3.2 9.7 0.00 0.00 0.00 98 1016.8
20190421124012 15 234 3.2 6.4 0.00 0.00 0.00 97 1016.8
20190421123511 15 202 3.2 9.7 0.00 0.00 0.00 97 1016.7
20190421123013 15 209 1.6 4.8 0.00 0.00 0.00 98 1016.6
20190421122511 15 230 3.2 6.4 0.00 0.00 0.00 97 1016.4
20190421122012 15 234 3.2 6.4 0.00 0.00 0.00 97 1016.3
20190421121511 15 233 3.2 6.4 0.00 0.00 0.00 97 1016.3
20190421121012 15 219 1.6 6.4 0.00 0.00 0.00 97 1016.4
20190421120511 15 225 1.6 4.8 0.00 0.00 0.00 97 1016.6
20190421120013 15 223 1.6 4.8 0.00 0.00 0.00 97 1016.4
20190421115511 15 226 3.2 6.4 0.00 0.00 0.00 97 1016.3
20190421115013 15 224 1.6 4.8 0.00 0.00 0.00 96 1016.3
20190421114511 15 210 1.6 4.8 0.00 0.00 0.00 96 1016.2
20190421114012 15 220 1.6 6.4 0.00 0.00 0.00 96 1016.1
20190421113510 15 213 3.2 8.0 0.00 0.00 0.00 97 1016.2
20190421113014 15 228 1.6 3.2 0.00 0.00 0.00 96 1016.2
20190421112513 15 229 1.6 4.8 0.00 0.00 0.00 96 1016.2
20190421112015 15 236 1.6 4.8 0.00 0.00 0.00 97 1016.2
20190421111514 15 208 1.6 4.8 0.00 0.00 0.00 96 1016.1
20190421111012 15 200 1.6 3.2 0.00 0.00 0.00 96 1016.1
20190421110512 15 235 1.6 4.8 0.00 0.00 0.00 95 1016.1
20190421110013 15 242 1.6 4.8 0.00 0.00 0.00 95 1016.1
20190421105511 15 200 1.6 8.0 0.00 0.00 0.00 95 1016.1
20190421105012 15 245 1.6 6.4 0.00 0.00 0.00 95 1016.1
20190421104511 15 219 0.0 3.2 0.00 0.00 0.00 96 1016.0
20190421104012 15 221 0.0 3.2 0.00 0.00 0.00 95 1016.0
20190421103511 14 234 1.6 3.2 0.00 0.00 0.00 95 1016.0
20190421103012 14 235 1.6 4.8 0.00 0.00 0.00 95 1016.0
20190421102512 14 236 1.6 6.4 0.00 0.00 0.00 94 1016.0
20190421102013 14 222 1.6 3.2 0.00 0.00 0.00 95 1016.0
20190421101511 14 235 1.6 6.4 0.00 0.00 0.00 94 1016.0
20190421101012 14 239 1.6 3.2 0.00 0.00 0.00 94 1015.9
20190421100511 14 230 0.0 3.2 0.00 0.00 0.00 93 1015.9
20190421100012 14 226 1.6 4.8 0.00 0.00 0.00 92 1015.8
20190421095511 14 223 1.6 8.0 0.00 0.00 0.00 92 1015.9
20190421095021 14 246 1.6 6.4 0.00 0.00 0.00 92 1015.9
20190421094511 14 245 1.6 6.4 0.00 0.00 0.00 91 1015.9
20190421094012 14 225 1.6 8.0 0.00 0.00 0.00 91 1016.0
20190421093511 14 257 1.6 8.0 0.00 0.00 0.00 91 1016.0
20190421093013 14 223 1.6 4.8 0.00 0.00 0.00 91 1015.9
20190421092511 14 253 1.6 4.8 0.00 0.00 0.00 90 1015.9
20190421092012 14 219 1.6 4.8 0.00 0.00 0.00 91 1015.8
20190421091012 14 217 1.6 4.8 0.00 0.00 0.00 90 1015.9
20190421090512 15 193 1.6 4.8 0.00 0.00 0.00 91 1015.9
20190421090014 15 214 1.6 6.4 0.00 0.00 0.00 90 1015.9
20190421085511 15 222 1.6 4.8 0.00 0.00 0.00 90 1015.9
20190421085012 15 245 1.6 6.4 0.00 0.00 0.00 90 1016.0
20190421084511 15 202 1.6 6.4 0.00 0.00 0.00 90 1016.0
20190421084012 15 221 1.6 4.8 0.00 0.00 0.00 89 1016.0
20190421083510 15 214 1.6 6.4 0.00 0.00 0.00 89 1016.0
20190421083012 15 228 1.6 9.7 0.00 0.00 0.00 88 1016.0
20190421082511 15 210 1.6 8.0 0.00 0.00 0.00 87 1016.1
20190421082012 15 222 1.6 6.4 0.00 0.00 0.00 88 1016.1
20190421081512 15 224 1.6 4.8 0.00 0.00 0.00 88 1016.2
20190421081012 15 215 1.6 6.4 0.00 0.00 0.00 87 1016.2
20190421080510 15 227 1.6 4.8 0.00 0.00 0.00 85 1016.2
20190421080012 15 220 1.6 8.0 0.00 0.00 0.00 84 1016.3
20190421075510 15 206 1.6 4.8 0.00 0.00 0.00 85 1016.3
20190421075012 15 220 1.6 6.4 0.00 0.00 0.00 84 1016.3
20190421074511 15 202 1.6 6.4 0.00 0.00 0.00 85 1016.4
20190421073511 15 221 1.6 4.8 0.00 0.00 0.00 84 1016.3
20190421073014 15 206 1.6 6.4 0.00 0.00 0.00 85 1016.4
20190421072513 15 218 3.2 6.4 0.00 0.00 0.00 83 1016.4
20190421072012 15 225 3.2 6.4 0.00 0.00 0.00 83 1016.4
20190421071511 15 233 1.6 6.4 0.00 0.00 0.00 84 1016.6
20190421071013 15 221 3.2 6.4 0.00 0.00 0.00 84 1016.6
20190421070511 15 214 1.6 4.8 0.00 0.00 0.00 84 1016.8
20190421070013 15 214 1.6 4.8 0.00 0.00 0.00 83 1016.8
20190421065511 15 215 3.2 4.8 0.00 0.00 0.00 82 1016.8
20190421065013 15 225 3.2 9.7 0.00 0.00 0.00 82 1016.9
20190421064511 15 231 3.2 8.0 0.00 0.00 0.00 80 1017.0
20190421064012 15 265 3.2 8.0 0.00 0.00 0.00 80 1017.0
20190421063511 15 205 1.6 6.4 0.00 0.00 0.00 78 1017.0
20190421063013 15 228 1.6 6.4 0.00 0.00 0.00 77 1017.1
20190421062511 15 234 3.2 6.4 0.00 0.00 0.00 77 1017.1
20190421062012 15 200 3.2 8.0 0.00 0.00 0.00 77 1017.1
20190421061512 15 224 3.2 8.0 0.00 0.00 0.00 76 1017.3
20190421061013 15 214 3.2 8.0 0.00 0.00 0.00 78 1017.3
20190421060512 15 203 3.2 9.7 0.00 0.00 0.00 78 1017.4
20190421060013 15 215 1.6 6.4 0.00 0.00 0.00 78 1017.5
20190421055511 15 200 3.2 6.4 0.00 0.00 0.00 80 1017.7
20190421055013 15 213 3.2 6.4 0.00 0.00 0.00 80 1017.7
20190421054511 16 212 3.2 8.0 0.00 0.00 0.00 79 1017.8
20190421054012 16 195 3.2 8.0 0.00 0.00 0.00 79 1017.7
20190421053511 16 199 4.8 8.0 0.00 0.00 0.00 80 1017.8
20190421053014 16 210 3.2 9.7 0.00 0.00 0.00 80 1017.7
20190421052511 16 185 3.2 6.4 0.00 0.00 0.00 79 1017.7
20190421052013 16 208 3.2 8.0 0.00 0.00 0.00 80 1017.6
20190421051511 16 215 3.2 8.0 0.00 0.00 0.00 81 1017.5
20190421051012 16 201 1.6 6.4 0.00 0.00 0.00 80 1017.5
20190421050511 16 184 3.2 6.4 0.00 0.00 0.00 80 1017.6
20190421045510 16 217 3.2 6.4 0.00 0.00 0.00 78 1017.6
20190421045013 16 181 1.6 6.4 0.00 0.00 0.00 79 1017.7
20190421044511 16 199 0.0 3.2 0.00 0.00 0.00 77 1017.7
20190421044013 16 222 0.0 4.8 0.00 0.00 0.00 78 1017.7
20190421043511 16 187 1.6 4.8 0.00 0.00 0.00 77 1017.7
20190421043014 17 202 1.6 3.2 0.00 0.00 0.00 75 1017.7
20190421042013 17 196 1.6 6.4 0.00 0.00 0.00 74 1017.7
20190421041511 17 208 1.6 3.2 0.00 0.00 0.00 74 1017.7
20190421041013 17 200 1.6 4.8 0.00 0.00 0.00 73 1017.6
20190421040517 17 187 3.2 6.4 0.00 0.00 0.00 72 1017.7
20190421040011 18 210 3.2 6.4 0.00 0.00 0.00 71 1017.7
20190421035511 18 203 3.2 6.4 0.00 0.00 0.00 70 1017.7
20190421035013 18 200 1.6 4.8 0.00 0.00 0.00 69 1017.6
20190421034512 18 220 3.2 8.0 0.00 0.00 0.00 68 1017.4
20190421034012 18 213 3.2 8.0 0.00 0.00 0.00 68 1017.3
20190421033511 18 206 6.4 12.9 0.00 0.00 0.00 67 1017.5
20190421033014 18 198 6.4 12.9 0.00 0.00 0.00 68 1017.4
20190421032512 17 211 6.4 16.1 0.00 0.00 0.00 68 1017.4
20190421032012 17 197 3.2 6.4 0.00 0.00 0.00 68 1017.4
20190421031511 18 201 1.6 3.2 0.00 0.00 0.00 66 1017.3
20190421031014 18 202 1.6 3.2 0.00 0.00 0.00 66 1017.3
20190421030511 18 202 0.0 1.6 0.00 0.00 0.00 67 1017.2
20190421030014 18 202 1.6 3.2 0.00 0.00 0.00 66 1017.2
20190421025511 18 205 1.6 3.2 0.00 0.00 0.00 66 1017.1
20190421025013 18 200 1.6 3.2 0.00 0.00 0.00 65 1017.1
20190421024510 18 180 1.6 3.2 0.00 0.00 0.00 65 1017.0
20190421024013 18 204 1.6 3.2 0.00 0.00 0.00 66 1017.0
20190421023512 18 197 1.6 4.8 0.00 0.00 0.00 65 1016.9
20190421023014 18 180 1.6 3.2 0.00 0.00 0.00 64 1016.9
20190421022511 18 202 1.6 3.2 0.00 0.00 0.00 63 1017.0
20190421022014 18 195 1.6 3.2 0.00 0.00 0.00 62 1017.0
20190421021512 18 202 1.6 1.6 0.00 0.00 0.00 62 1017.0
20190421021013 18 202 1.6 3.2 0.00 0.00 0.00 62 1016.9
20190421020512 18 202 1.6 3.2 0.00 0.00 0.00 60 1016.9
20190421020035 19 202 1.6 1.6 0.00 0.00 0.00 60 1016.8
20190421015512 19 202 1.6 1.6 0.00 0.00 0.00 60 1016.8
20190421015014 20 202 1.6 1.6 0.00 0.00 0.00 59 1016.8
20190421014512 20 202 1.6 3.2 0.00 0.00 0.00 58 1016.8
20190421014012 20 202 1.6 3.2 0.00 0.00 0.00 57 1016.8
20190421013511 20 199 1.6 3.2 0.00 0.00 0.00 57 1016.6
20190421013014 20 191 1.6 4.8 0.00 0.00 0.00 55 1016.7
20190421012511 21 202 1.6 3.2 0.00 0.00 0.00 54 1016.7
20190421012012 21 197 1.6 3.2 0.00 0.00 0.00 53 1016.7
20190421011511 21 202 1.6 3.2 0.00 0.00 0.00 53 1016.6
20190421011012 21 202 3.2 4.8 0.00 0.00 0.00 52 1016.6
20190421010512 22 198 1.6 4.8 0.00 0.00 0.00 51 1016.6
20190421010013 22 201 3.2 4.8 0.00 0.00 0.00 49 1016.6
20190421005511 22 190 4.8 8.0 0.00 0.00 0.00 49 1016.5
20190421005013 23 192 4.8 9.7 0.00 0.00 0.00 47 1016.6
20190421004511 23 198 6.4 11.3 0.00 0.00 0.00 46 1016.6
20190421004012 23 195 6.4 11.3 0.00 0.00 0.00 46 1016.4
20190421003511 24 189 4.8 8.0 0.00 0.00 0.00 45 1016.4
20190421003013 24 199 3.2 6.4 0.00 0.00 0.00 43 1016.4
20190421002510 25 195 3.2 8.0 0.00 0.00 0.00 43 1016.4
20190421002012 25 197 4.8 9.7 0.00 0.00 0.00 43 1016.4
20190421001511 25 214 3.2 6.4 0.00 0.00 0.00 42 1016.3
20190421001012 25 197 3.2 6.4 0.00 0.00 0.00 41 1016.4
20190421000524 26 219 3.2 9.7 0.00 0.00 0.00 41 1016.4
20190421000012 26 209 4.8 11.3 0.00 0.00 0.00 39 1016.5
20190420235511 26 208 3.2 8.0 0.00 0.00 0.00 40 1016.4
20190420235012 26 225 3.2 4.8 0.00 0.00 0.00 40 1016.5
20190420234511 26 208 4.8 9.7 0.00 0.00 0.00 39 1016.5
20190420234013 26 199 6.4 11.3 0.00 0.00 0.00 39 1016.4
20190420233510 26 201 4.8 11.3 0.00 0.00 0.00 39 1016.5
20190420233014 26 191 9.7 16.1 0.00 0.00 0.00 38 1016.6
20190420232510 26 184 8.0 16.1 0.00 0.00 0.00 37 1016.5
20190420232013 26 201 4.8 9.7 0.00 0.00 0.00 38 1016.6
20190420231512 27 203 4.8 14.5 0.00 0.00 0.00 36 1016.6
20190420231012 27 210 6.4 12.9 0.00 0.00 0.00 36 1016.5
20190420230511 27 246 1.6 6.4 0.00 0.00 0.00 36 1016.6
20190420230012 27 200 4.8 9.7 0.00 0.00 0.00 37 1016.6
20190420225511 27 233 4.8 9.7 0.00 0.00 0.00 37 1016.6
20190420225013 27 195 6.4 11.3 0.00 0.00 0.00 37 1016.5
20190420224511 27 183 4.8 9.7 0.00 0.00 0.00 37 1016.6
20190420224011 27 251 3.2 8.0 0.00 0.00 0.00 36 1016.5
20190420223511 27 177 4.8 9.7 0.00 0.00 0.00 34 1016.7
20190420222511 27 190 6.4 12.9 0.00 0.00 0.00 35 1016.9
20190420222013 27 200 3.2 8.0 0.00 0.00 0.00 34 1017.0
20190420221510 27 253 3.2 9.7 0.00 0.00 0.00 34 1017.1
20190420221013 27 211 3.2 6.4 0.00 0.00 0.00 33 1017.2
20190420220511 27 191 1.6 6.4 0.00 0.00 0.00 34 1017.2
20190420220016 27 209 1.6 4.8 0.00 0.00 0.00 35 1017.2
20190420215510 27 182 9.7 14.5 0.00 0.00 0.00 34 1017.3
20190420215012 27 204 3.2 8.0 0.00 0.00 0.00 34 1017.4
20190420214511 27 224 6.4 12.9 0.00 0.00 0.00 35 1017.5
20190420214013 27 240 3.2 11.3 0.00 0.00 0.00 35 1017.7
20190420213511 27 231 4.8 11.3 0.00 0.00 0.00 35 1017.8
20190420213013 27 190 3.2 8.0 0.00 0.00 0.00 35 1017.9
20190420212511 27 261 6.4 16.1 0.00 0.00 0.00 36 1018.0
20190420212012 26 212 3.2 9.7 0.00 0.00 0.00 35 1018.2
20190420211511 26 249 6.4 12.9 0.00 0.00 0.00 34 1018.2
20190420211013 27 199 3.2 8.0 0.00 0.00 0.00 34 1018.3
20190420210511 27 266 6.4 14.5 0.00 0.00 0.00 34 1018.4
20190420210013 27 225 3.2 6.4 0.00 0.00 0.00 34 1018.5
20190420205510 26 239 1.6 6.4 0.00 0.00 0.00 35 1018.5
20190420205013 26 224 3.2 6.4 0.00 0.00 0.00 35 1018.6
20190420204510 26 258 3.2 11.3 0.00 0.00 0.00 35 1018.5
20190420204012 26 263 4.8 12.9 0.00 0.00 0.00 35 1018.7
20190420203511 26 247 4.8 12.9 0.00 0.00 0.00 34 1018.7
20190420203013 26 251 6.4 14.5 0.00 0.00 0.00 35 1018.8
20190420202511 26 239 3.2 6.4 0.00 0.00 0.00 35 1018.9
20190420202013 26 230 4.8 11.3 0.00 0.00 0.00 34 1018.9
20190420201511 26 218 4.8 9.7 0.00 0.00 0.00 35 1019.1
20190420201012 26 239 3.2 6.4 0.00 0.00 0.00 35 1019.2
20190420200511 26 244 3.2 6.4 0.00 0.00 0.00 35 1019.3
20190420200014 25 236 4.8 12.9 0.00 0.00 0.00 35 1019.4
20190420195510 25 227 3.2 9.7 0.00 0.00 0.00 36 1019.7
20190420195013 25 224 4.8 11.3 0.00 0.00 0.00 35 1019.6
20190420194510 25 178 8.0 14.5 0.00 0.00 0.00 36 1019.6
20190420194012 25 252 3.2 11.3 0.00 0.00 0.00 37 1019.7
20190420193511 25 294 3.2 6.4 0.00 0.00 0.00 36 1019.7
20190420193013 25 260 3.2 9.7 0.00 0.00 0.00 36 1019.7
20190420192511 25 213 1.6 6.4 0.00 0.00 0.00 36 1019.9
20190420192012 25 225 1.6 6.4 0.00 0.00 0.00 37 1020.0
20190420191511 25 245 1.6 6.4 0.00 0.00 0.00 37 1019.9
20190420191012 24 215 4.8 12.9 0.00 0.00 0.00 37 1020.0
20190420190512 24 179 3.2 11.3 0.00 0.00 0.00 36 1020.2
20190420190013 24 217 3.2 9.7 0.00 0.00 0.00 37 1020.4
20190420185512 24 214 1.6 6.4 0.00 0.00 0.00 38 1020.5
20190420185012 23 236 3.2 9.7 0.00 0.00 0.00 38 1020.6
20190420184511 23 251 6.4 12.9 0.00 0.00 0.00 38 1020.6
20190420184013 23 274 6.4 9.7 0.00 0.00 0.00 37 1020.7
20190420183512 23 246 4.8 11.3 0.00 0.00 0.00 38 1020.7
20190420183014 23 222 3.2 8.0 0.00 0.00 0.00 37 1020.8
20190420182511 23 237 3.2 8.0 0.00 0.00 0.00 37 1021.0
20190420182013 23 266 3.2 8.0 0.00 0.00 0.00 38 1021.0
20190420181511 23 226 4.8 9.7 0.00 0.00 0.00 37 1021.1
20190420181012 22 225 3.2 11.3 0.00 0.00 0.00 38 1021.2
20190420180511 22 237 4.8 11.3 0.00 0.00 0.00 37 1021.2
20190420180013 22 275 6.4 12.9 0.00 0.00 0.00 37 1021.2
20190420175511 22 260 6.4 12.9 0.00 0.00 0.00 36 1021.2
20190420175013 22 275 9.7 17.7 0.00 0.00 0.00 36 1021.3
20190420174511 22 245 1.6 6.4 0.00 0.00 0.00 36 1021.4
20190420174013 22 263 4.8 14.5 0.00 0.00 0.00 36 1021.6
20190420173512 22 229 4.8 14.5 0.00 0.00 0.00 36 1021.6
20190420173012 22 255 4.8 16.1 0.00 0.00 0.00 36 1021.6
20190420172511 22 244 3.2 9.7 0.00 0.00 0.00 37 1021.8
20190420172013 21 263 6.4 12.9 0.00 0.00 0.00 36 1021.8
20190420171511 21 217 6.4 19.3 0.00 0.00 0.00 35 1021.9
20190420171012 22 253 4.8 11.3 0.00 0.00 0.00 34 1022.1
20190420170511 21 219 3.2 8.0 0.00 0.00 0.00 36 1022.1
20190420170013 21 219 4.8 12.9 0.00 0.00 0.00 35 1022.1